createdAt,value
2019-05-17T00:00:39.230Z,100271.67
2019-05-17T00:02:46.765Z,100270.09
2019-05-17T00:04:56.238Z,100268.97
2019-05-17T00:07:03.560Z,100273.81
2019-05-17T00:09:11.251Z,100267.54
2019-05-17T00:11:18.704Z,100264.53
2019-05-17T00:13:26.854Z,100264.45
2019-05-17T00:15:36.643Z,100257.08
2019-05-17T00:17:43.538Z,100254.93
2019-05-17T00:19:51.040Z,100260.63
2019-05-17T00:21:58.578Z,100252.36
2019-05-17T00:24:06.786Z,100243.87
2019-05-17T00:26:16.433Z,100249.57
2019-05-17T00:28:23.611Z,100242.98
2019-05-17T00:30:31.085Z,100249.86
2019-05-17T00:32:38.578Z,100251.28
2019-05-17T00:34:47.019Z,100252.26
2019-05-17T00:36:54.611Z,100249.47
2019-05-17T00:39:02.075Z,100244.75
2019-05-17T00:41:09.701Z,100244.05
2019-05-17T00:43:17.192Z,100236.80
2019-05-17T00:45:26.595Z,100236.44
2019-05-17T00:47:33.684Z,100231.81
2019-05-17T00:49:41.141Z,100232.54
2019-05-17T00:51:49.100Z,100228.48
2019-05-17T00:53:56.615Z,100234.14
2019-05-17T00:56:06.480Z,100241.59
2019-05-17T00:58:13.415Z,100238.73
2019-05-17T01:00:21.304Z,100233.94
2019-05-17T01:02:28.757Z,100231.38
2019-05-17T01:04:36.905Z,100222.39
2019-05-17T01:06:46.906Z,100214.33
2019-05-17T01:09:01.579Z,100217.73
2019-05-17T01:11:03.843Z,100212.88
2019-05-17T01:13:11.375Z,100214.39
2019-05-17T01:15:20.435Z,100207.25
2019-05-17T01:17:27.838Z,100209.91
2019-05-17T01:19:36.554Z,100208.67
2019-05-17T01:21:44.676Z,100212.80
2019-05-17T01:23:52.122Z,100208.81
2019-05-17T01:25:59.616Z,100212.41
2019-05-17T01:28:07.729Z,100208.66
2019-05-17T01:30:17.744Z,100206.01
2019-05-17T01:32:26.656Z,100204.69
2019-05-17T01:34:34.347Z,100206.95
2019-05-17T01:36:41.804Z,100209.50
2019-05-17T01:38:49.291Z,100203.36
2019-05-17T01:40:56.730Z,100197.17
2019-05-17T01:43:04.134Z,100199.38
2019-05-17T01:45:12.310Z,100191.03
2019-05-17T01:47:19.795Z,100194.27
2019-05-17T01:49:27.238Z,100194.17
2019-05-17T01:51:36.881Z,100197.90
2019-05-17T01:53:43.984Z,100196.19
2019-05-17T01:55:51.378Z,100192.59
2019-05-17T01:57:58.833Z,100186.31
2019-05-17T02:00:07.676Z,100184.53
2019-05-17T02:02:17.923Z,100193.94
2019-05-17T02:04:26.832Z,100192.36
2019-05-17T02:06:36.422Z,100191.77
2019-05-17T02:08:43.464Z,100186.80
2019-05-17T02:10:50.950Z,100184.39
2019-05-17T02:12:58.370Z,100187.44
2019-05-17T02:15:07.007Z,100187.98
2019-05-17T02:17:14.612Z,100182.59
2019-05-17T02:19:21.995Z,100179.91
2019-05-17T02:21:29.466Z,100175.83
2019-05-17T02:23:37.367Z,100175.50
2019-05-17T02:25:47.102Z,100180.31
2019-05-17T02:27:54.125Z,100182.47
2019-05-17T02:30:02.767Z,100175.20
2019-05-17T02:32:12.827Z,100176.88
2019-05-17T02:34:23.056Z,100174.02
2019-05-17T02:36:29.038Z,100173.94
2019-05-17T02:38:36.353Z,100183.91
2019-05-17T02:40:43.794Z,100182.48
2019-05-17T02:42:53.564Z,100188.12
2019-05-17T02:45:03.132Z,100185.22
2019-05-17T02:47:09.776Z,100184.84
2019-05-17T02:49:17.180Z,100183.66
2019-05-17T02:51:24.603Z,100186.55
2019-05-17T02:53:33.464Z,100181.09
2019-05-17T02:55:43.521Z,100172.70
2019-05-17T02:57:52.937Z,100177.28
2019-05-17T02:59:59.542Z,100180.22
2019-05-17T03:02:07.118Z,100181.00
2019-05-17T03:04:14.929Z,100194.66
2019-05-17T03:06:22.879Z,100191.03
2019-05-17T03:08:33.657Z,100192.74
2019-05-17T03:10:42.980Z,100191.41
2019-05-17T03:12:48.837Z,100187.89
2019-05-17T03:14:56.210Z,100190.44
2019-05-17T03:17:03.765Z,100182.48
2019-05-17T03:19:13.043Z,100183.91
2019-05-17T03:21:22.893Z,100183.81
2019-05-17T03:23:32.739Z,100183.33
2019-05-17T03:25:39.097Z,100180.56
2019-05-17T03:27:46.593Z,100184.55
2019-05-17T03:29:54.026Z,100181.30
2019-05-17T03:32:08.821Z,100185.44
2019-05-17T03:34:17.064Z,100175.91
2019-05-17T03:36:26.053Z,100170.84
2019-05-17T03:38:32.658Z,100179.05
2019-05-17T03:41:07.205Z,100178.80
2019-05-17T03:42:53.561Z,100174.44
2019-05-17T03:45:02.613Z,100173.73
2019-05-17T03:47:08.669Z,100173.11
2019-05-17T03:49:16.182Z,100173.11
2019-05-17T03:51:23.689Z,100176.73
2019-05-17T03:53:33.517Z,100178.30
2019-05-17T03:55:42.970Z,100176.09
2019-05-17T03:57:52.986Z,100178.41
2019-05-17T03:59:58.671Z,100171.03
2019-05-17T04:02:06.136Z,100174.08
2019-05-17T04:04:13.801Z,100178.91
2019-05-17T04:06:23.901Z,100174.23
2019-05-17T04:08:33.226Z,100175.55
2019-05-17T04:10:42.389Z,100172.45
2019-05-17T04:12:48.844Z,100180.42
2019-05-17T04:14:56.308Z,100177.17
2019-05-17T04:17:03.839Z,100170.41
2019-05-17T04:19:13.982Z,100175.16
2019-05-17T04:21:23.184Z,100175.61
2019-05-17T04:23:29.689Z,100176.20
2019-05-17T04:25:38.801Z,100175.47
2019-05-17T04:27:46.264Z,100173.45
2019-05-17T04:29:53.702Z,100166.23
2019-05-17T04:32:04.034Z,100165.73
2019-05-17T04:34:13.226Z,100170.34
2019-05-17T04:36:22.259Z,100173.39
2019-05-17T04:38:28.803Z,100174.77
2019-05-17T04:40:36.278Z,100170.67
2019-05-17T04:42:44.532Z,100182.80
2019-05-17T04:44:52.847Z,100184.30
2019-05-17T04:47:03.188Z,100185.27
2019-05-17T04:49:09.650Z,100184.44
2019-05-17T04:51:17.120Z,100179.40
2019-05-17T04:53:24.759Z,100185.03
2019-05-17T04:55:34.072Z,100181.05
2019-05-17T04:57:43.755Z,100183.73
2019-05-17T04:59:52.370Z,100180.70
2019-05-17T05:02:02.950Z,100187.80
2019-05-17T05:04:09.395Z,100183.95
2019-05-17T05:06:16.926Z,100183.95
2019-05-17T05:08:24.415Z,100181.67
2019-05-17T05:10:33.818Z,100193.66
2019-05-17T05:12:43.611Z,100190.97
2019-05-17T05:14:52.285Z,100186.39
2019-05-17T05:17:02.482Z,100182.54
2019-05-17T05:19:09.236Z,100185.68
2019-05-17T05:21:16.743Z,100176.37
2019-05-17T05:23:24.257Z,100178.82
2019-05-17T05:25:32.303Z,100180.37
2019-05-17T05:27:42.286Z,100179.28
2019-05-17T05:29:49.323Z,100191.48
2019-05-17T05:31:57.881Z,100194.39
2019-05-17T05:34:05.463Z,100200.78
2019-05-17T05:36:12.883Z,100199.45
2019-05-17T05:38:21.595Z,100196.28
2019-05-17T05:40:29.489Z,100199.92
2019-05-17T05:42:36.886Z,100206.09
2019-05-17T05:44:44.363Z,100211.77
2019-05-17T05:46:51.784Z,100215.40
2019-05-17T05:49:05.312Z,100212.14
2019-05-17T05:51:13.712Z,100219.14
2019-05-17T05:53:21.922Z,100211.27
2019-05-17T05:55:32.240Z,100220.22
2019-05-17T05:57:41.981Z,100223.13
2019-05-17T05:59:48.910Z,100223.97
2019-05-17T06:01:56.346Z,100220.44
2019-05-17T06:04:03.917Z,100218.86
2019-05-17T06:06:12.328Z,100226.63
2019-05-17T06:08:22.515Z,100228.30
2019-05-17T06:10:29.561Z,100231.69
2019-05-17T06:12:36.977Z,100220.84
2019-05-17T06:14:44.881Z,100223.61
2019-05-17T06:16:52.501Z,100226.75
2019-05-17T06:19:02.184Z,100226.92
2019-05-17T06:21:09.359Z,100223.91
2019-05-17T06:23:16.860Z,100223.45
2019-05-17T06:25:24.411Z,100212.89
2019-05-17T06:27:32.899Z,100210.37
2019-05-17T06:29:41.508Z,100216.31
2019-05-17T06:31:51.734Z,100212.80
2019-05-17T06:33:58.401Z,100215.70
2019-05-17T06:36:05.949Z,100213.65
2019-05-17T06:38:13.482Z,100212.19
2019-05-17T06:40:21.899Z,100225.12
2019-05-17T06:42:38.249Z,100223.90
2019-05-17T06:44:38.660Z,100220.56
2019-05-17T06:46:46.282Z,100225.41
2019-05-17T06:48:53.730Z,100219.97
2019-05-17T06:51:02.585Z,100232.41
2019-05-17T06:53:12.241Z,100239.59
2019-05-17T06:55:20.945Z,100236.78
2019-05-17T06:57:28.670Z,100243.56
2019-05-17T06:59:36.381Z,100245.36
2019-05-17T07:01:43.952Z,100244.76
2019-05-17T07:03:52.216Z,100254.93
2019-05-17T07:06:01.523Z,100249.59
2019-05-17T07:08:10.900Z,100247.77
2019-05-17T07:10:19.649Z,100256.73
2019-05-17T07:12:27.858Z,100252.86
2019-05-17T07:14:35.793Z,100252.96
2019-05-17T07:16:43.474Z,100252.95
2019-05-17T07:18:51.483Z,100246.66
2019-05-17T07:21:02.879Z,100246.92
2019-05-17T07:23:10.752Z,100249.34
2019-05-17T07:25:19.799Z,100246.20
2019-05-17T07:27:40.663Z,100249.59
2019-05-17T07:29:36.925Z,100252.02
2019-05-17T07:31:45.547Z,100251.16
2019-05-17T07:33:53.263Z,100248.02
2019-05-17T07:36:00.859Z,100253.22
2019-05-17T07:38:10.628Z,100251.52
2019-05-17T07:40:19.870Z,100252.36
2019-05-17T07:42:29.727Z,100250.81
2019-05-17T07:44:37.254Z,100257.46
2019-05-17T07:46:44.756Z,100258.92
2019-05-17T07:48:52.416Z,100251.22
2019-05-17T07:51:00.294Z,100261.61
2019-05-17T07:53:10.406Z,100261.73
2019-05-17T07:55:20.767Z,100260.53
2019-05-17T07:57:29.789Z,100263.78
2019-05-17T07:59:36.655Z,100263.53
2019-05-17T08:01:44.426Z,100257.00
2019-05-17T08:03:52.129Z,100260.13
2019-05-17T08:06:00.147Z,100253.13
2019-05-17T08:08:09.692Z,100261.84
2019-05-17T08:10:20.350Z,100258.70
2019-05-17T08:12:27.629Z,100255.06
2019-05-17T08:14:35.507Z,100259.05
2019-05-17T08:16:43.101Z,100261.10
2019-05-17T08:18:50.753Z,100258.59
2019-05-17T08:20:59.755Z,100258.47
2019-05-17T08:23:07.418Z,100258.09
2019-05-17T08:25:15.445Z,100264.88
2019-05-17T08:27:22.904Z,100262.09
2019-05-17T08:29:30.790Z,100258.11
2019-05-17T08:31:40.432Z,100258.11
2019-05-17T08:33:49.681Z,100254.36
2019-05-17T08:35:56.941Z,100262.45
2019-05-17T08:38:04.559Z,100249.87
2019-05-17T08:40:15.267Z,100248.64
2019-05-17T08:42:25.143Z,100246.59
2019-05-17T08:44:31.789Z,100247.88
2019-05-17T08:46:39.644Z,100242.40
2019-05-17T08:48:49.378Z,100248.59
2019-05-17T08:50:56.925Z,100246.31
2019-05-17T08:53:04.876Z,100242.89
2019-05-17T08:55:12.610Z,100240.11
2019-05-17T08:57:20.642Z,100246.84
2019-05-17T08:59:29.621Z,100239.83
2019-05-17T09:01:40.960Z,100234.27
2019-05-17T09:03:46.873Z,100236.34
2019-05-17T09:05:54.396Z,100232.23
2019-05-17T09:08:01.973Z,100225.81
2019-05-17T09:10:10.477Z,100227.76
2019-05-17T09:12:20.485Z,100225.25
2019-05-17T09:14:29.343Z,100223.09
2019-05-17T09:16:36.691Z,100225.86
2019-05-17T09:18:44.329Z,100226.44
2019-05-17T09:20:51.784Z,100227.37
2019-05-17T09:23:00.071Z,100226.42
2019-05-17T09:25:13.526Z,100224.83
2019-05-17T09:27:19.700Z,100222.55
2019-05-17T09:29:26.910Z,100223.77
2019-05-17T09:31:34.618Z,100224.88
2019-05-17T09:33:42.171Z,100229.25
2019-05-17T09:35:50.102Z,100223.98
2019-05-17T09:38:00.343Z,100228.34
2019-05-17T09:40:09.381Z,100223.84
2019-05-17T09:42:16.630Z,100226.13
2019-05-17T09:44:24.221Z,100219.87
2019-05-17T09:46:31.731Z,100222.30
2019-05-17T09:48:39.768Z,100217.25
2019-05-17T09:50:47.409Z,100211.16
2019-05-17T09:52:54.933Z,100204.91
2019-05-17T09:55:02.563Z,100200.63
2019-05-17T09:57:10.077Z,100197.84
2019-05-17T09:59:17.632Z,100201.19
2019-05-17T10:01:25.278Z,100200.34
2019-05-17T10:03:32.926Z,100194.73
2019-05-17T10:05:40.895Z,100197.94
2019-05-17T10:07:50.626Z,100201.19
2019-05-17T10:09:59.771Z,100208.66
2019-05-17T10:12:09.386Z,100203.73
2019-05-17T10:14:27.502Z,100214.53
2019-05-17T10:16:25.858Z,100207.02
2019-05-17T10:18:33.492Z,100210.73
2019-05-17T10:20:41.026Z,100206.64
2019-05-17T10:22:50.450Z,100202.82
2019-05-17T10:25:00.169Z,100205.07
2019-05-17T10:27:06.922Z,100200.97
2019-05-17T10:29:14.386Z,100194.92
2019-05-17T10:31:22.125Z,100201.23
2019-05-17T10:33:29.638Z,100205.13
2019-05-17T10:35:37.337Z,100204.38
2019-05-17T10:37:44.792Z,100201.08
2019-05-17T10:39:52.258Z,100208.11
2019-05-17T10:41:59.851Z,100211.80
2019-05-17T10:44:09.342Z,100209.00
2019-05-17T10:46:16.571Z,100201.52
2019-05-17T10:48:24.334Z,100203.82
2019-05-17T10:50:32.345Z,100193.34
2019-05-17T10:52:40.904Z,100200.38
2019-05-17T10:54:49.091Z,100205.52
2019-05-17T10:56:59.566Z,100213.72
2019-05-17T10:59:06.522Z,100213.31
2019-05-17T11:01:14.435Z,100202.39
2019-05-17T11:03:21.994Z,100207.92
2019-05-17T11:05:30.828Z,100211.58
2019-05-17T11:07:39.240Z,100215.58
2019-05-17T11:09:46.847Z,100211.49
2019-05-17T11:11:54.446Z,100205.55
2019-05-17T11:14:02.043Z,100210.27
2019-05-17T11:16:09.863Z,100216.20
2019-05-17T11:18:17.486Z,100230.10
2019-05-17T11:20:25.329Z,100225.39
2019-05-17T11:22:32.861Z,100220.42
2019-05-17T11:24:40.752Z,100234.73
2019-05-17T11:26:48.514Z,100240.81
2019-05-17T11:28:56.820Z,100239.02
2019-05-17T11:31:04.537Z,100242.89
2019-05-17T11:33:12.205Z,100241.06
2019-05-17T11:35:19.860Z,100239.52
2019-05-17T11:37:27.345Z,100237.03
2019-05-17T11:39:34.740Z,100241.33
2019-05-17T11:41:42.233Z,100239.45
2019-05-17T11:43:49.800Z,100233.10
2019-05-17T11:45:57.294Z,100230.72
2019-05-17T11:48:04.864Z,100240.11
2019-05-17T11:50:13.125Z,100239.47
2019-05-17T11:52:20.591Z,100239.23
2019-05-17T11:54:28.577Z,100237.53
2019-05-17T11:56:36.093Z,100235.75
2019-05-17T11:58:43.597Z,100241.07
2019-05-17T12:00:51.131Z,100239.15
2019-05-17T12:02:58.609Z,100239.78
2019-05-17T12:05:07.694Z,100243.95
2019-05-17T12:07:15.280Z,100241.78
2019-05-17T12:09:36.473Z,100243.88
2019-05-17T12:11:31.900Z,100238.70
2019-05-17T12:13:39.683Z,100238.56
2019-05-17T12:15:48.596Z,100242.21
2019-05-17T12:17:56.092Z,100241.66
2019-05-17T12:20:03.742Z,100250.76
2019-05-17T12:22:11.287Z,100247.23
2019-05-17T12:24:18.823Z,100253.13
2019-05-17T12:26:26.306Z,100247.55
2019-05-17T12:28:33.970Z,100260.01
2019-05-17T12:30:41.411Z,100261.38
2019-05-17T12:32:48.878Z,100263.20
2019-05-17T12:34:56.336Z,100272.17
2019-05-17T12:37:03.883Z,100270.42
2019-05-17T12:39:11.342Z,100275.02
2019-05-17T12:41:21.599Z,100266.62
2019-05-17T12:43:29.244Z,100266.73
2019-05-17T12:45:36.972Z,100266.21
2019-05-17T12:47:44.388Z,100265.41
2019-05-17T12:49:51.886Z,100269.31
2019-05-17T12:51:59.352Z,100265.91
2019-05-17T12:54:06.875Z,100266.38
2019-05-17T12:56:14.367Z,100271.98
2019-05-17T12:58:22.041Z,100275.99
2019-05-17T13:00:29.992Z,100286.14
2019-05-17T13:02:37.457Z,100291.73
2019-05-17T13:04:45.053Z,100306.86
2019-05-17T13:06:52.721Z,100309.98
2019-05-17T13:09:00.176Z,100310.59
2019-05-17T13:11:07.813Z,100289.77
2019-05-17T13:13:15.500Z,100286.06
2019-05-17T13:15:23.195Z,100301.26
2019-05-17T13:17:30.814Z,100304.97
2019-05-17T13:19:38.422Z,100308.39
2019-05-17T13:21:46.178Z,100304.08
2019-05-17T13:23:53.809Z,100312.89
2019-05-17T13:26:01.401Z,100315.45
2019-05-17T13:28:09.240Z,100317.05
2019-05-17T13:30:17.522Z,100308.58
2019-05-17T13:32:24.999Z,100313.78
2019-05-17T13:34:33.163Z,100312.80
2019-05-17T13:36:41.318Z,100311.59
2019-05-17T13:38:49.306Z,100314.59
2019-05-17T13:40:57.576Z,100328.91
2019-05-17T13:43:05.776Z,100318.10
2019-05-17T13:45:16.651Z,100314.74
2019-05-17T13:47:24.448Z,100305.19
2019-05-17T13:49:32.671Z,100320.41
2019-05-17T13:51:41.242Z,100310.61
2019-05-17T13:53:49.554Z,100319.10
2019-05-17T13:55:58.320Z,100305.44
2019-05-17T13:58:09.767Z,100299.25
2019-05-17T14:00:17.896Z,100300.34
2019-05-17T14:02:26.074Z,100297.31
2019-05-17T14:04:34.585Z,100297.36
2019-05-17T14:06:43.011Z,100298.67
2019-05-17T14:08:51.810Z,100299.41
2019-05-17T14:11:00.028Z,100302.84
2019-05-17T14:13:08.997Z,100305.03
2019-05-17T14:15:17.148Z,100301.14
2019-05-17T14:17:24.714Z,100308.77
2019-05-17T14:19:32.827Z,100311.06
2019-05-17T14:21:40.657Z,100303.19
2019-05-17T14:23:48.757Z,100305.11
2019-05-17T14:25:56.539Z,100300.96
2019-05-17T14:28:04.314Z,100295.02
2019-05-17T14:30:13.124Z,100296.32
2019-05-17T14:32:20.839Z,100300.08
2019-05-17T14:34:28.711Z,100295.59
2019-05-17T14:36:37.028Z,100289.53
2019-05-17T14:38:44.844Z,100291.47
2019-05-17T14:41:09.004Z,100294.20
2019-05-17T14:43:02.190Z,100301.47
2019-05-17T14:45:12.424Z,100290.03
2019-05-17T14:47:20.419Z,100290.87
2019-05-17T14:49:28.407Z,100293.59
2019-05-17T14:51:36.339Z,100298.19
2019-05-17T14:53:47.631Z,100296.52
2019-05-17T14:55:56.889Z,100294.02
2019-05-17T14:58:04.971Z,100293.54
2019-05-17T15:00:13.571Z,100296.89
2019-05-17T15:02:22.097Z,100294.66
2019-05-17T15:04:30.671Z,100298.95
2019-05-17T15:06:38.423Z,100299.96
2019-05-17T15:08:46.465Z,100297.39
2019-05-17T15:10:55.239Z,100294.20
2019-05-17T15:13:04.432Z,100301.69
2019-05-17T15:15:13.713Z,100289.92
2019-05-17T15:17:22.237Z,100299.98
2019-05-17T15:19:30.448Z,100298.84
2019-05-17T15:21:38.532Z,100295.62
2019-05-17T15:23:46.777Z,100294.05
2019-05-17T15:25:54.414Z,100294.64
2019-05-17T15:28:02.136Z,100289.48
2019-05-17T15:30:11.690Z,100284.56
2019-05-17T15:32:19.394Z,100285.76
2019-05-17T15:34:27.024Z,100283.12
2019-05-17T15:36:34.699Z,100282.53
2019-05-17T15:38:42.706Z,100284.75
2019-05-17T15:40:50.454Z,100284.99
2019-05-17T15:42:58.008Z,100289.00
2019-05-17T15:45:07.054Z,100278.72
2019-05-17T15:47:14.657Z,100278.10
2019-05-17T15:49:22.117Z,100275.59
2019-05-17T15:51:29.686Z,100273.04
2019-05-17T15:53:37.244Z,100274.30
2019-05-17T15:55:44.736Z,100271.39
2019-05-17T15:57:52.522Z,100274.72
2019-05-17T16:00:00.086Z,100278.97
2019-05-17T16:02:07.750Z,100276.25
2019-05-17T16:04:15.493Z,100269.53
2019-05-17T16:06:23.446Z,100271.73
2019-05-17T16:08:31.059Z,100282.42
2019-05-17T16:10:38.852Z,100278.59
2019-05-17T16:13:00.977Z,100286.30
2019-05-17T16:14:56.847Z,100282.20
2019-05-17T16:17:04.568Z,100280.13
2019-05-17T16:19:13.208Z,100282.05
2019-05-17T16:21:21.179Z,100284.22
2019-05-17T16:23:29.171Z,100287.63
2019-05-17T16:25:38.159Z,100285.84
2019-05-17T16:27:46.444Z,100284.01
2019-05-17T16:29:54.416Z,100290.50
2019-05-17T16:32:03.146Z,100287.11
2019-05-17T16:34:11.729Z,100289.78
2019-05-17T16:36:20.194Z,100286.77
2019-05-17T16:38:27.915Z,100284.45
2019-05-17T16:40:35.633Z,100290.89
2019-05-17T16:42:43.172Z,100292.77
2019-05-17T16:44:50.935Z,100296.50
2019-05-17T16:46:59.723Z,100291.28
2019-05-17T16:49:07.637Z,100289.47
2019-05-17T16:51:15.434Z,100295.71
2019-05-17T16:53:22.961Z,100288.62
2019-05-17T16:55:30.630Z,100291.18
2019-05-17T16:57:39.359Z,100289.74
2019-05-17T16:59:48.401Z,100286.51
2019-05-17T17:01:56.293Z,100296.84
2019-05-17T17:04:04.663Z,100293.59
2019-05-17T17:06:12.963Z,100292.36
2019-05-17T17:08:21.739Z,100288.91
2019-05-17T17:10:29.594Z,100288.92
2019-05-17T17:12:37.214Z,100295.08
2019-05-17T17:14:44.874Z,100298.73
2019-05-17T17:16:52.401Z,100294.47
2019-05-17T17:19:00.899Z,100282.27
2019-05-17T17:21:09.361Z,100283.87
2019-05-17T17:23:17.309Z,100287.75
2019-05-17T17:25:25.387Z,100282.43
2019-05-17T17:27:33.362Z,100283.19
2019-05-17T17:29:41.494Z,100273.87
2019-05-17T17:31:49.597Z,100275.58
2019-05-17T17:33:58.358Z,100279.91
2019-05-17T17:36:06.451Z,100285.02
2019-05-17T17:38:14.265Z,100281.13
2019-05-17T17:40:25.642Z,100282.72
2019-05-17T17:42:33.283Z,100289.13
2019-05-17T17:44:41.018Z,100286.34
2019-05-17T17:46:49.324Z,100279.95
2019-05-17T17:48:57.203Z,100284.78
2019-05-17T17:51:05.096Z,100280.67
2019-05-17T17:53:13.159Z,100284.66
2019-05-17T17:55:21.509Z,100288.28
2019-05-17T17:57:29.933Z,100292.39
2019-05-17T17:59:37.941Z,100294.25
2019-05-17T18:01:45.943Z,100296.41
2019-05-17T18:03:54.110Z,100297.14
2019-05-17T18:06:02.460Z,100290.76
2019-05-17T18:08:12.968Z,100299.33
2019-05-17T18:10:34.424Z,100306.47
2019-05-17T18:12:42.656Z,100301.26
2019-05-17T18:14:50.550Z,100307.09
2019-05-17T18:16:58.462Z,100297.89
2019-05-17T18:19:06.807Z,100307.22
2019-05-17T18:21:14.915Z,100307.09
2019-05-17T18:23:23.665Z,100308.30
2019-05-17T18:25:31.514Z,100309.88
2019-05-17T18:27:39.124Z,100313.26
2019-05-17T18:29:46.900Z,100313.14
2019-05-17T18:31:54.766Z,100318.22
2019-05-17T18:34:04.936Z,100326.92
2019-05-17T18:36:12.679Z,100329.94
2019-05-17T18:38:24.340Z,100333.50
2019-05-17T18:40:32.108Z,100338.60
2019-05-17T18:42:39.849Z,100338.03
2019-05-17T18:44:48.096Z,100343.69
2019-05-17T18:46:56.110Z,100351.64
2019-05-17T18:49:04.203Z,100352.72
2019-05-17T18:51:11.964Z,100351.39
2019-05-17T18:53:20.346Z,100355.03
2019-05-17T18:55:28.195Z,100357.53
2019-05-17T18:57:35.971Z,100354.84
2019-05-17T18:59:43.697Z,100360.62
2019-05-17T19:01:51.805Z,100365.09
2019-05-17T19:04:01.556Z,100370.52
2019-05-17T19:06:09.222Z,100365.80
2019-05-17T19:08:17.215Z,100367.41
2019-05-17T19:10:25.140Z,100362.19
2019-05-17T19:12:32.750Z,100368.31
2019-05-17T19:14:42.906Z,100364.57
2019-05-17T19:16:50.008Z,100360.69
2019-05-17T19:18:57.895Z,100364.91
2019-05-17T19:21:08.164Z,100361.27
2019-05-17T19:23:16.328Z,100363.20
2019-05-17T19:25:24.795Z,100356.61
2019-05-17T19:27:33.443Z,100365.77
2019-05-17T19:29:43.230Z,100363.11
2019-05-17T19:31:50.587Z,100361.67
2019-05-17T19:33:58.659Z,100365.87
2019-05-17T19:36:06.719Z,100360.21
2019-05-17T19:38:14.348Z,100361.98
2019-05-17T19:40:22.468Z,100363.50
2019-05-17T19:42:30.292Z,100365.42
2019-05-17T19:44:38.744Z,100364.67
2019-05-17T19:46:46.434Z,100361.91
2019-05-17T19:48:54.132Z,100365.89
2019-05-17T19:51:01.652Z,100361.17
2019-05-17T19:53:09.215Z,100362.20
2019-05-17T19:55:17.391Z,100366.13
2019-05-17T19:57:25.035Z,100366.52
2019-05-17T19:59:32.637Z,100368.92
2019-05-17T20:01:40.562Z,100365.34
2019-05-17T20:03:48.066Z,100369.66
2019-05-17T20:05:55.601Z,100371.08
2019-05-17T20:08:03.898Z,100363.47
2019-05-17T20:10:12.417Z,100361.05
2019-05-17T20:12:20.840Z,100360.80
2019-05-17T20:14:29.009Z,100355.97
2019-05-17T20:16:37.073Z,100357.75
2019-05-17T20:18:45.582Z,100357.89
2019-05-17T20:20:53.250Z,100360.56
2019-05-17T20:23:00.814Z,100358.57
2019-05-17T20:25:09.186Z,100352.44
2019-05-17T20:27:16.747Z,100347.23
2019-05-17T20:29:24.259Z,100336.03
2019-05-17T20:31:31.997Z,100348.78
2019-05-17T20:33:39.565Z,100337.36
2019-05-17T20:35:47.239Z,100343.20
2019-05-17T20:37:54.779Z,100340.39
2019-05-17T20:40:02.482Z,100345.86
2019-05-17T20:42:10.539Z,100344.72
2019-05-17T20:44:19.028Z,100350.53
2019-05-17T20:46:26.803Z,100349.53
2019-05-17T20:48:36.186Z,100340.89
2019-05-17T20:50:44.379Z,100347.08
2019-05-17T20:52:52.546Z,100342.98
2019-05-17T20:55:00.575Z,100349.78
2019-05-17T20:57:08.778Z,100345.23
2019-05-17T20:59:16.646Z,100344.48
2019-05-17T21:01:25.148Z,100348.47
2019-05-17T21:03:33.068Z,100354.78
2019-05-17T21:05:40.664Z,100353.00
2019-05-17T21:07:50.668Z,100346.37
2019-05-17T21:09:58.296Z,100348.80
2019-05-17T21:12:06.143Z,100359.73
2019-05-17T21:14:13.670Z,100353.45
2019-05-17T21:16:21.321Z,100355.20
2019-05-17T21:18:28.795Z,100350.38
2019-05-17T21:20:36.404Z,100348.47
2019-05-17T21:22:44.230Z,100354.00
2019-05-17T21:24:51.698Z,100352.19
2019-05-17T21:26:59.210Z,100360.16
2019-05-17T21:29:06.959Z,100357.66
2019-05-17T21:31:14.426Z,100349.28
2019-05-17T21:33:21.916Z,100346.40
2019-05-17T21:35:29.372Z,100349.31
2019-05-17T21:37:37.014Z,100346.33
2019-05-17T21:39:44.794Z,100353.34
2019-05-17T21:41:52.445Z,100348.98
2019-05-17T21:44:00.061Z,100344.64
2019-05-17T21:46:07.604Z,100346.13
2019-05-17T21:48:15.146Z,100343.63
2019-05-17T21:50:22.818Z,100345.98
2019-05-17T21:52:30.664Z,100343.81
2019-05-17T21:54:38.226Z,100344.41
2019-05-17T21:56:45.857Z,100344.41
2019-05-17T21:58:53.298Z,100349.13
2019-05-17T22:01:20.162Z,100351.52
2019-05-17T22:03:27.760Z,100359.59
2019-05-17T22:05:35.304Z,100355.69
2019-05-17T22:07:42.971Z,100356.13
2019-05-17T22:09:50.792Z,100347.19
2019-05-17T22:12:01.307Z,100341.19
2019-05-17T22:14:09.032Z,100353.59
2019-05-17T22:16:19.969Z,100347.34
2019-05-17T22:18:26.030Z,100341.05
2019-05-17T22:20:33.656Z,100345.67
2019-05-17T22:22:42.040Z,100342.05
2019-05-17T22:24:49.627Z,100339.23
2019-05-17T22:26:57.055Z,100340.62
2019-05-17T22:29:05.184Z,100324.68
2019-05-17T22:31:12.660Z,100320.36
2019-05-17T22:33:20.169Z,100321.08
2019-05-17T22:35:27.658Z,100319.62
2019-05-17T22:37:35.134Z,100328.37
2019-05-17T22:39:42.512Z,100324.92
2019-05-17T22:41:49.993Z,100321.53
2019-05-17T22:43:57.457Z,100327.63
2019-05-17T22:46:04.859Z,100326.20
2019-05-17T22:48:12.341Z,100312.83
2019-05-17T22:50:19.820Z,100316.81
2019-05-17T22:52:27.337Z,100314.59
2019-05-17T22:54:35.207Z,100311.86
2019-05-17T22:56:42.594Z,100311.37
2019-05-17T22:58:50.082Z,100312.94
2019-05-17T23:00:57.611Z,100306.50
2019-05-17T23:03:05.066Z,100315.69
2019-05-17T23:05:12.846Z,100307.42
2019-05-17T23:07:20.402Z,100307.22
2019-05-17T23:09:27.855Z,100308.91
2019-05-17T23:11:35.353Z,100306.25
2019-05-17T23:13:42.952Z,100296.60
2019-05-17T23:16:03.547Z,100298.46
2019-05-17T23:18:11.054Z,100308.66
2019-05-17T23:20:19.877Z,100308.25
2019-05-17T23:22:27.431Z,100317.12
2019-05-17T23:24:34.980Z,100316.73
2019-05-17T23:26:42.381Z,100322.50
2019-05-17T23:28:49.854Z,100328.41
2019-05-17T23:30:57.270Z,100326.47
2019-05-17T23:33:04.996Z,100327.96
2019-05-17T23:35:13.521Z,100331.06
2019-05-17T23:37:20.936Z,100331.13
2019-05-17T23:39:28.485Z,100328.41
2019-05-17T23:41:35.898Z,100333.88
2019-05-17T23:43:43.357Z,100329.16
2019-05-17T23:45:50.824Z,100336.02
2019-05-17T23:47:58.169Z,100332.78
2019-05-17T23:50:06.433Z,100324.83
2019-05-17T23:52:13.869Z,100332.84
2019-05-17T23:54:21.371Z,100337.59
2019-05-17T23:56:28.794Z,100332.70
2019-05-17T23:58:36.243Z,100332.55
